Time;durP1;ratioP1;P1;durP2;ratioP2;P2;SDS_P1;SDS_P2;PMS_P1;PMS_P2;Temp;Humidity;BMP_temperature;BMP_pressure;BME280_temperature;BME280_humidity;BME280_pressure;Samples;Min_cycle;Max_cycle;Signal;HPM_P1;HPM_P2
2023/03/24 00:01:18;;;;;;;;;;;;;;;10.57;50.88;101002.85;107662;1254;111720;-62
2023/03/24 00:03:50;;;;;;;;;;;;;;;10.53;50.80;101001.14;107652;1254;108811;-62
2023/03/24 00:06:21;;;;;;;;;;;;;;;10.48;50.88;100993.31;107612;1252;108918;-61
2023/03/24 00:08:50;;;;;;;;;;;;;;;10.43;50.91;100993.72;107648;1254;97705;-62
2023/03/24 00:11:19;;;;;;;;;;;;;;;10.39;51.03;100988.15;107644;1254;98226;-61
2023/03/24 00:13:48;;;;;;;;;;;;;;;10.34;50.69;100986.57;107670;1253;112179;-62
2023/03/24 00:16:20;;;;;;;;;;;;;;;10.27;50.92;100985.69;107635;1254;109057;-61
2023/03/24 00:18:51;;;;;;;;;;;;;;;10.20;50.97;100987.73;107713;1252;108576;-63
2023/03/24 00:21:23;;;;;;;;;;;;;;;10.13;50.92;100986.14;107632;1252;97830;-62
2023/03/24 00:23:53;;;;;;;;;;;;;;;10.05;51.02;100985.55;107659;1256;97686;-61
2023/03/24 00:26:23;;;;;;;;;;;;;;;9.97;51.31;100982.14;107644;1254;111980;-60
2023/03/24 00:28:53;;;;;;;;;;;;;;;9.90;51.43;100982.69;107584;1253;109989;-61
2023/03/24 00:31:23;;;;;;;;;;;;;;;9.83;51.62;100988.08;107620;1254;108514;-61
2023/03/24 00:33:52;;;;;;;;;;;;;;;9.77;51.46;100992.20;107635;1252;98518;-61
2023/03/24 00:36:22;;;;;;;;;;;;;;;9.68;52.01;100983.77;107693;1254;97822;-62
2023/03/24 00:38:50;;;;;;;;;;;;;;;9.60;51.81;100982.64;107633;1253;110857;-59
2023/03/24 00:41:19;;;;;;;;;;;;;;;9.52;52.04;100981.11;107661;1254;108994;-62
2023/03/24 00:43:48;;;;;;;;;;;;;;;9.46;52.45;100981.42;107699;1254;108247;-62
2023/03/24 00:46:26;;;;;;;;;;;;;;;9.41;52.61;100980.23;107636;1254;97913;-62
2023/03/24 00:49:01;;;;;;;;;;;;;;;9.37;52.76;100978.17;107663;1254;97705;-62
2023/03/24 00:51:38;;;;;;;;;;;;;;;9.34;52.43;100975.73;107607;1254;112208;-61
2023/03/24 00:54:08;;;;;;;;;;;;;;;9.32;52.49;100973.27;107595;1254;110110;-62
2023/03/24 00:56:39;;;;;;;;;;;;;;;9.28;52.48;100975.67;107629;1254;108287;-61
2023/03/24 00:59:08;;;;;;;;;;;;;;;9.23;52.62;100976.63;107619;1254;97883;-61
2023/03/24 01:01:39;;;;;;;;;;;;;;;9.17;52.69;100979.56;107632;1253;97986;-63
2023/03/24 01:04:09;;;;;;;;;;;;;;;9.12;52.63;100982.48;107641;1254;112315;-61
2023/03/24 01:06:38;;;;;;;;;;;;;;;9.05;52.77;100984.23;107632;1254;109850;-61
2023/03/24 01:09:07;;;;;;;;;;;;;;;8.97;52.81;100987.23;107577;1255;108411;-62
2023/03/24 01:11:37;;;;;;;;;;;;;;;8.91;52.74;100990.59;107625;1254;97815;-62
2023/03/24 01:14:07;;;;;;;;;;;;;;;8.83;52.74;100995.79;107633;1254;97850;-62
2023/03/24 01:16:36;;;;;;;;;;;;;;;8.79;52.68;100997.57;107619;1254;112193;-60
2023/03/24 01:19:05;;;;;;;;;;;;;;;8.74;52.71;100996.82;107649;1254;109269;-62
2023/03/24 01:21:35;;;;;;;;;;;;;;;8.68;52.92;100997.69;107677;1254;107191;-61
2023/03/24 01:24:04;;;;;;;;;;;;;;;8.60;53.46;101000.98;107643;1256;97871;-61
2023/03/24 01:26:33;;;;;;;;;;;;;;;8.52;53.38;101002.13;107624;1254;97738;-62
2023/03/24 01:29:01;;;;;;;;;;;;;;;8.43;53.33;101002.89;107595;1254;112101;-60
2023/03/24 01:31:30;;;;;;;;;;;;;;;8.36;54.09;101001.88;107611;1254;110201;-62
2023/03/24 01:33:59;;;;;;;;;;;;;;;8.30;54.14;101004.65;107607;1252;107633;-62
2023/03/24 01:36:27;;;;;;;;;;;;;;;8.26;54.03;101004.06;107599;1254;97803;-62
2023/03/24 01:38:57;;;;;;;;;;;;;;;8.21;54.12;101005.30;107651;1254;97848;-62
2023/03/24 01:41:27;;;;;;;;;;;;;;;8.15;54.72;101005.02;107619;1254;110914;-62
2023/03/24 01:43:55;;;;;;;;;;;;;;;8.10;54.56;101005.92;107596;1254;109173;-62
2023/03/24 01:46:28;;;;;;;;;;;;;;;8.05;54.45;101008.68;107637;1256;108447;-62
2023/03/24 01:49:05;;;;;;;;;;;;;;;8.01;54.56;101006.07;107611;1254;97829;-61
2023/03/24 01:51:40;;;;;;;;;;;;;;;7.98;54.48;101002.73;107620;1258;97869;-62
2023/03/24 01:54:24;;;;;;;;;;;;;;;7.95;55.02;101007.41;107634;1254;112484;-63
2023/03/24 01:56:58;;;;;;;;;;;;;;;7.93;54.55;101005.43;107624;1254;109792;-63
2023/03/24 01:59:29;;;;;;;;;;;;;;;7.90;54.76;101005.27;107610;1257;109539;-62
2023/03/24 02:02:20;;;;;;;;;;;;;;;7.88;54.51;101006.71;107585;1258;98043;-61
2023/03/24 02:04:59;;;;;;;;;;;;;;;7.83;54.89;101007.73;107600;1254;97801;-61
2023/03/24 02:07:35;;;;;;;;;;;;;;;7.79;54.97;101007.68;107631;1254;112347;-61
2023/03/24 02:10:08;;;;;;;;;;;;;;;7.77;55.05;101010.66;107621;1253;109213;-62
2023/03/24 02:12:37;;;;;;;;;;;;;;;7.74;55.14;101012.15;107521;1254;108165;-63
2023/03/24 02:15:07;;;;;;;;;;;;;;;7.71;55.20;101015.40;107598;1254;97818;-60
2023/03/24 02:17:55;;;;;;;;;;;;;;;7.66;55.69;101012.17;107663;1253;97730;-62
2023/03/24 02:20:40;;;;;;;;;;;;;;;7.63;55.88;101010.45;107731;1254;112218;-62
2023/03/24 02:23:16;;;;;;;;;;;;;;;7.60;55.98;101009.61;107643;1254;109275;-61
2023/03/24 02:25:47;;;;;;;;;;;;;;;7.56;56.48;101005.45;107625;1254;108781;-61
2023/03/24 02:28:27;;;;;;;;;;;;;;;7.52;56.77;101004.80;107673;1255;97882;-61
2023/03/24 02:31:07;;;;;;;;;;;;;;;7.49;56.85;101003.92;107700;1254;98233;-62
2023/03/24 02:33:39;;;;;;;;;;;;;;;7.48;56.66;101002.44;107681;1254;112280;-61
2023/03/24 02:36:20;;;;;;;;;;;;;;;7.45;56.95;101006.02;107700;1254;109673;-61
2023/03/24 02:39:08;;;;;;;;;;;;;;;7.42;57.19;101004.30;107686;1254;107805;-62
2023/03/24 02:41:39;;;;;;;;;;;;;;;7.38;56.94;101008.48;107636;1254;98395;-61
2023/03/24 02:44:27;;;;;;;;;;;;;;;7.35;56.97;101005.29;107677;1254;97825;-61
2023/03/24 02:47:05;;;;;;;;;;;;;;;7.32;57.30;101003.15;107667;1254;111678;-62
2023/03/24 02:49:43;;;;;;;;;;;;;;;7.30;57.28;101003.13;107589;1253;108850;-61
2023/03/24 02:52:11;;;;;;;;;;;;;;;7.26;57.39;101001.27;107635;1253;108179;-63
2023/03/24 02:54:41;;;;;;;;;;;;;;;7.23;57.46;101006.35;107609;1255;97911;-61
2023/03/24 02:57:16;;;;;;;;;;;;;;;7.19;57.35;101011.02;107641;1254;97816;-60
2023/03/24 03:00:18;;;;;;;;;;;;;;;7.12;57.40;101011.16;107349;1254;111264;-60
2023/03/24 03:03:08;;;;;;;;;;;;;;;7.08;57.26;101015.05;107589;1254;109228;-60
2023/03/24 03:05:48;;;;;;;;;;;;;;;7.03;57.22;101016.47;107631;1254;108228;-62
2023/03/24 03:08:19;;;;;;;;;;;;;;;6.98;57.16;101013.73;107608;1254;97804;-62
2023/03/24 03:10:49;;;;;;;;;;;;;;;6.93;57.59;101012.35;107640;1254;97887;-62
2023/03/24 03:13:26;;;;;;;;;;;;;;;6.88;57.41;101008.01;107707;1255;111763;-61
2023/03/24 03:15:57;;;;;;;;;;;;;;;6.86;57.67;101003.34;107611;1254;110148;-60
2023/03/24 03:18:38;;;;;;;;;;;;;;;6.82;58.01;101005.20;107606;1254;108142;-61
2023/03/24 03:21:09;;;;;;;;;;;;;;;6.80;57.88;101011.26;107701;1254;97903;-62
2023/03/24 03:23:44;;;;;;;;;;;;;;;6.77;58.08;101015.41;107699;1254;97803;-62
2023/03/24 03:26:16;;;;;;;;;;;;;;;6.76;58.19;101019.00;107591;1252;111666;-61
2023/03/24 03:28:49;;;;;;;;;;;;;;;6.75;57.92;101026.92;107671;1254;110501;-63
2023/03/24 03:31:28;;;;;;;;;;;;;;;6.72;57.87;101034.76;107558;1254;109561;-61
2023/03/24 03:34:17;;;;;;;;;;;;;;;6.64;58.14;101036.02;107615;1252;97897;-61
2023/03/24 03:36:45;;;;;;;;;;;;;;;6.58;58.11;101034.28;107515;1254;97840;-62
2023/03/24 03:39:19;;;;;;;;;;;;;;;6.53;58.22;101035.16;107645;1254;112231;-60
2023/03/24 03:41:47;;;;;;;;;;;;;;;6.51;58.45;101041.52;107603;1254;110111;-62
2023/03/24 03:44:16;;;;;;;;;;;;;;;6.50;58.73;101040.92;107559;1254;109008;-61
2023/03/24 03:46:45;;;;;;;;;;;;;;;6.46;58.74;101040.14;107605;1254;97714;-61
2023/03/24 03:49:17;;;;;;;;;;;;;;;6.43;58.79;101038.70;107594;1252;97978;-60
2023/03/24 03:51:46;;;;;;;;;;;;;;;6.41;59.26;101039.36;107608;1254;111386;-61
2023/03/24 03:54:15;;;;;;;;;;;;;;;6.37;59.35;101043.55;107637;1254;109150;-61
2023/03/24 03:56:47;;;;;;;;;;;;;;;6.37;59.47;101042.48;107685;1254;108090;-61
2023/03/24 03:59:33;;;;;;;;;;;;;;;6.39;59.74;101047.91;107626;1254;97812;-61
2023/03/24 04:02:24;;;;;;;;;;;;;;;6.40;59.41;101049.60;107601;1254;99082;-62
2023/03/24 04:05:19;;;;;;;;;;;;;;;6.42;59.40;101053.74;107614;1254;109996;-61
2023/03/24 04:08:07;;;;;;;;;;;;;;;6.42;59.53;101052.67;107607;1253;110391;-61
2023/03/24 04:10:53;;;;;;;;;;;;;;;6.39;59.46;101050.39;107633;1254;108328;-63
2023/03/24 04:13:31;;;;;;;;;;;;;;;6.37;60.17;101046.04;107637;1254;97812;-61
2023/03/24 04:16:38;;;;;;;;;;;;;;;6.38;60.48;101045.29;107621;1254;97796;-62
2023/03/24 04:19:24;;;;;;;;;;;;;;;6.40;60.42;101047.63;107669;1254;111176;-61
2023/03/24 04:22:16;;;;;;;;;;;;;;;6.39;60.76;101051.41;107700;1253;110117;-62
2023/03/24 04:24:44;;;;;;;;;;;;;;;6.40;60.54;101053.46;107487;1253;108825;-62
2023/03/24 04:27:16;;;;;;;;;;;;;;;6.41;60.16;101047.35;107648;1254;97831;-60
2023/03/24 04:29:54;;;;;;;;;;;;;;;6.41;60.09;101050.74;107667;1252;97886;-61
2023/03/24 04:32:26;;;;;;;;;;;;;;;6.42;59.80;101059.25;107661;1255;111666;-61
2023/03/24 04:35:00;;;;;;;;;;;;;;;6.44;60.16;101065.02;107708;1254;109712;-62
2023/03/24 04:37:55;;;;;;;;;;;;;;;6.46;60.08;101071.13;107698;1256;108216;-62
2023/03/24 04:40:31;;;;;;;;;;;;;;;6.47;60.20;101071.75;107593;1256;97965;-62
2023/03/24 04:43:03;;;;;;;;;;;;;;;6.47;59.88;101074.43;107662;1253;97972;-60
2023/03/24 04:45:32;;;;;;;;;;;;;;;6.47;60.23;101073.50;107624;1254;111788;-61
2023/03/24 04:48:26;;;;;;;;;;;;;;;6.49;59.92;101073.94;107428;1254;109506;-61
2023/03/24 04:51:11;;;;;;;;;;;;;;;6.51;60.25;101079.32;107619;1254;108150;-61
2023/03/24 04:53:55;;;;;;;;;;;;;;;6.55;60.36;101080.08;107707;1254;97876;-63
2023/03/24 04:56:27;;;;;;;;;;;;;;;6.59;60.73;101082.55;107646;1254;97903;-63
2023/03/24 04:59:06;;;;;;;;;;;;;;;6.60;60.60;101086.23;107717;1254;111746;-62
2023/03/24 05:01:36;;;;;;;;;;;;;;;6.63;60.59;101087.98;107648;1254;109217;-62
2023/03/24 05:04:25;;;;;;;;;;;;;;;6.65;60.83;101087.14;107599;1254;107966;-62
2023/03/24 05:06:54;;;;;;;;;;;;;;;6.68;61.04;101084.95;107666;1254;97805;-62
2023/03/24 05:09:25;;;;;;;;;;;;;;;6.72;61.28;101086.64;107625;1254;97804;-62
2023/03/24 05:12:06;;;;;;;;;;;;;;;6.76;61.31;101084.81;107641;1254;110996;-63
2023/03/24 05:15:18;;;;;;;;;;;;;;;6.82;61.63;101089.54;107321;1254;109368;-61
2023/03/24 05:17:48;;;;;;;;;;;;;;;6.88;61.51;101085.76;107627;1254;108139;-60
2023/03/24 05:20:16;;;;;;;;;;;;;;;6.94;61.09;101090.02;107636;1256;97873;-61
2023/03/24 05:22:49;;;;;;;;;;;;;;;6.98;60.93;101094.91;107666;1254;97701;-62
2023/03/24 05:25:17;;;;;;;;;;;;;;;7.01;61.34;101096.67;107621;1256;113051;-63
2023/03/24 05:27:46;;;;;;;;;;;;;;;7.06;61.87;101099.35;107637;1256;109081;-62
2023/03/24 05:30:25;;;;;;;;;;;;;;;7.12;62.11;101104.30;107597;1256;107270;-62
2023/03/24 05:33:00;;;;;;;;;;;;;;;7.16;61.84;101104.02;107699;1254;97831;-63
2023/03/24 05:35:29;;;;;;;;;;;;;;;7.21;62.05;101104.90;107589;1254;97893;-62
2023/03/24 05:37:58;;;;;;;;;;;;;;;7.29;62.21;101104.23;107666;1254;111131;-63
2023/03/24 05:40:26;;;;;;;;;;;;;;;7.35;62.31;101095.02;107651;1256;108344;-62
2023/03/24 05:43:11;;;;;;;;;;;;;;;7.45;62.03;101100.05;107623;1253;107864;-62
2023/03/24 05:45:43;;;;;;;;;;;;;;;7.55;61.92;101102.39;107663;1254;97834;-61
2023/03/24 05:48:19;;;;;;;;;;;;;;;7.64;62.10;101100.02;107631;1254;97909;-62
2023/03/24 05:51:13;;;;;;;;;;;;;;;7.76;62.19;101101.27;107628;1254;111324;-62
2023/03/24 05:53:42;;;;;;;;;;;;;;;7.87;62.41;101098.53;107647;1254;109076;-63
2023/03/24 05:56:16;;;;;;;;;;;;;;;7.98;62.45;101095.05;107655;1254;107622;-61
2023/03/24 05:59:16;;;;;;;;;;;;;;;8.13;62.32;101095.44;107477;1257;97873;-63
2023/03/24 06:02:06;;;;;;;;;;;;;;;8.24;62.42;101091.73;107675;1254;97845;-62
2023/03/24 06:04:50;;;;;;;;;;;;;;;8.34;62.17;101095.67;107598;1254;112230;-61
2023/03/24 06:07:25;;;;;;;;;;;;;;;8.43;62.15;101100.92;107584;1257;110185;-60
2023/03/24 06:09:56;;;;;;;;;;;;;;;8.50;61.97;101106.27;107560;1254;107665;-61
2023/03/24 06:12:25;;;;;;;;;;;;;;;8.60;62.09;101106.98;107586;1256;97845;-62
2023/03/24 06:15:00;;;;;;;;;;;;;;;8.69;62.00;101106.48;107637;1253;97928;-60
2023/03/24 06:17:29;;;;;;;;;;;;;;;8.81;61.91;101103.31;107672;1253;111530;-61
2023/03/24 06:20:04;;;;;;;;;;;;;;;8.93;61.91;101105.73;107582;1254;109756;-60
2023/03/24 06:22:35;;;;;;;;;;;;;;;9.05;61.88;101098.83;107632;1254;107527;-61
2023/03/24 06:25:07;;;;;;;;;;;;;;;9.16;61.63;101097.55;107652;1253;97829;-60
2023/03/24 06:27:37;;;;;;;;;;;;;;;9.26;61.37;101099.70;107656;1255;97690;-61
2023/03/24 06:30:07;;;;;;;;;;;;;;;9.34;61.07;101101.92;107696;1254;110080;-62
2023/03/24 06:32:37;;;;;;;;;;;;;;;9.45;60.95;101102.55;107616;1256;110025;-62
2023/03/24 06:35:06;;;;;;;;;;;;;;;9.51;60.70;101098.27;107616;1254;108452;-62
2023/03/24 06:37:46;;;;;;;;;;;;;;;9.57;60.74;101099.79;107653;1256;97818;-62
2023/03/24 06:40:16;;;;;;;;;;;;;;;9.60;60.49;101099.86;107662;1254;97812;-61
2023/03/24 06:42:54;;;;;;;;;;;;;;;9.63;60.43;101095.53;107614;1254;111524;-62
2023/03/24 06:45:23;;;;;;;;;;;;;;;9.62;60.46;101099.90;107624;1253;109658;-61
2023/03/24 06:47:56;;;;;;;;;;;;;;;9.61;60.45;101096.96;107657;1256;108120;-61
2023/03/24 06:50:26;;;;;;;;;;;;;;;9.62;60.34;101101.16;107616;1256;97871;-61
2023/03/24 06:52:54;;;;;;;;;;;;;;;9.63;60.16;101100.19;107647;1256;97922;-61
2023/03/24 06:55:23;;;;;;;;;;;;;;;9.66;60.22;101094.38;107635;1257;110765;-61
2023/03/24 06:57:52;;;;;;;;;;;;;;;9.70;60.33;101094.77;107701;1257;109800;-62
2023/03/24 07:00:37;;;;;;;;;;;;;;;9.75;60.29;101096.89;107617;1256;107837;-61
2023/03/24 07:03:35;;;;;;;;;;;;;;;9.82;60.13;101095.44;107255;1263;97827;-62
2023/03/24 07:06:30;;;;;;;;;;;;;;;9.90;60.31;101096.45;107622;1254;97834;-63
2023/03/24 07:09:08;;;;;;;;;;;;;;;9.96;60.30;101094.38;107677;1255;112002;-61
2023/03/24 07:11:37;;;;;;;;;;;;;;;10.02;60.38;101097.25;107669;1256;110268;-62
2023/03/24 07:14:06;;;;;;;;;;;;;;;10.10;60.18;101094.84;107680;1253;109206;-62
2023/03/24 07:16:35;;;;;;;;;;;;;;;10.18;60.50;101093.08;107681;1254;97877;-61
2023/03/24 07:19:27;;;;;;;;;;;;;;;10.28;60.36;101094.94;107378;1253;97712;-62
2023/03/24 07:22:12;;;;;;;;;;;;;;;10.40;60.16;101095.81;107533;1254;112192;-61
2023/03/24 07:25:03;;;;;;;;;;;;;;;10.52;59.98;101098.10;107585;1256;109176;-63
2023/03/24 07:27:40;;;;;;;;;;;;;;;10.63;60.07;101094.41;107581;1256;106663;-62
2023/03/24 07:30:10;;;;;;;;;;;;;;;10.77;59.95;101091.71;107625;1254;97806;-62
2023/03/24 07:32:44;;;;;;;;;;;;;;;10.92;59.81;101096.02;107723;1256;97759;-62
2023/03/24 07:35:13;;;;;;;;;;;;;;;11.06;59.74;101094.82;107633;1254;112992;-62
2023/03/24 07:37:41;;;;;;;;;;;;;;;11.22;59.53;101098.10;107736;1256;109674;-61
2023/03/24 07:40:11;;;;;;;;;;;;;;;11.35;59.06;101096.98;107707;1254;108963;-61
2023/03/24 07:42:43;;;;;;;;;;;;;;;11.49;58.79;101088.98;107616;1254;97947;-62
2023/03/24 07:45:34;;;;;;;;;;;;;;;11.67;58.46;101086.55;107624;1256;97812;-62
2023/03/24 07:48:03;;;;;;;;;;;;;;;11.82;58.37;101083.20;107567;1254;112571;-62
2023/03/24 07:50:34;;;;;;;;;;;;;;;11.98;57.92;101085.73;107697;1254;109719;-62
2023/03/24 07:53:11;;;;;;;;;;;;;;;12.14;57.41;101086.70;107649;1253;108158;-61
2023/03/24 07:55:40;;;;;;;;;;;;;;;12.30;57.13;101089.20;107626;1255;97826;-61
2023/03/24 07:58:13;;;;;;;;;;;;;;;12.47;57.09;101086.98;107691;1255;97803;-62
2023/03/24 08:00:52;;;;;;;;;;;;;;;12.64;56.88;101082.38;107582;1254;111683;-61
2023/03/24 08:03:26;;;;;;;;;;;;;;;12.83;56.37;101082.95;107616;1253;109840;-61
2023/03/24 08:06:14;;;;;;;;;;;;;;;13.00;55.57;101075.35;107602;1255;107758;-61
2023/03/24 08:08:50;;;;;;;;;;;;;;;13.16;55.22;101072.08;107640;1253;97810;-62
2023/03/24 08:11:20;;;;;;;;;;;;;;;13.33;54.91;101067.74;107598;1254;98550;-63
2023/03/24 08:13:48;;;;;;;;;;;;;;;13.50;54.85;101063.50;107660;1254;111162;-62
2023/03/24 08:16:17;;;;;;;;;;;;;;;13.69;54.59;101066.92;107664;1254;109833;-62
2023/03/24 08:18:47;;;;;;;;;;;;;;;13.88;54.50;101066.68;107654;1254;107731;-62
2023/03/24 08:21:24;;;;;;;;;;;;;;;14.09;54.13;101061.71;107665;1253;97682;-65
2023/03/24 08:23:53;;;;;;;;;;;;;;;14.34;53.32;101058.05;107623;1254;97690;-62
2023/03/24 08:26:25;;;;;;;;;;;;;;;14.54;52.45;101057.42;107665;1254;111845;-61
2023/03/24 08:28:53;;;;;;;;;;;;;;;14.73;50.51;101059.69;107688;1255;110249;-62
2023/03/24 08:31:21;;;;;;;;;;;;;;;14.89;48.71;101053.56;107657;1253;108115;-63
2023/03/24 08:33:52;;;;;;;;;;;;;;;15.03;48.64;101053.65;107716;1254;97925;-61
2023/03/24 08:36:24;;;;;;;;;;;;;;;15.17;48.74;101051.77;107679;1256;97774;-62
2023/03/24 08:38:54;;;;;;;;;;;;;;;15.35;48.76;101049.07;107693;1255;112203;-62
2023/03/24 08:41:45;;;;;;;;;;;;;;;15.53;48.54;101045.57;107720;1256;109102;-62
2023/03/24 08:44:11;;;;;;;;;;;;;;;15.77;47.10;101047.17;107659;1255;108278;-63
2023/03/24 08:46:40;;;;;;;;;;;;;;;16.01;46.73;101041.06;107716;1254;97848;-62
2023/03/24 08:49:09;;;;;;;;;;;;;;;16.24;46.51;101039.63;107712;1253;97807;-63
2023/03/24 08:51:37;;;;;;;;;;;;;;;16.50;45.74;101044.81;107636;1257;110936;-64
2023/03/24 08:54:06;;;;;;;;;;;;;;;16.76;44.44;101045.77;107608;1254;109109;-62
2023/03/24 08:56:34;;;;;;;;;;;;;;;17.02;44.59;101039.16;107696;1254;108568;-63
2023/03/24 08:59:04;;;;;;;;;;;;;;;17.28;45.12;101042.23;107672;1254;97816;-62
2023/03/24 09:01:34;;;;;;;;;;;;;;;17.55;43.80;101034.27;107665;1256;97815;-61
2023/03/24 09:04:02;;;;;;;;;;;;;;;17.82;43.29;101036.82;107692;1254;110399;-62
2023/03/24 09:06:31;;;;;;;;;;;;;;;18.12;43.41;101031.88;107638;1254;110194;-62
2023/03/24 09:08:59;;;;;;;;;;;;;;;18.33;42.47;101031.48;107651;1254;108368;-62
2023/03/24 09:11:27;;;;;;;;;;;;;;;18.58;42.69;101030.59;107670;1256;97887;-64
2023/03/24 09:13:56;;;;;;;;;;;;;;;18.92;41.84;101025.13;107667;1254;97927;-61
2023/03/24 09:16:25;;;;;;;;;;;;;;;19.26;41.56;101029.65;107696;1254;110535;-62
2023/03/24 09:18:53;;;;;;;;;;;;;;;19.63;40.10;101017.42;107735;1254;109756;-62
2023/03/24 09:21:22;;;;;;;;;;;;;;;19.96;39.99;101015.14;107668;1254;108671;-63
2023/03/24 09:23:51;;;;;;;;;;;;;;;20.34;39.24;101014.91;107676;1254;97978;-62
2023/03/24 09:26:20;;;;;;;;;;;;;;;20.75;38.61;101014.27;107674;1253;97822;-64
2023/03/24 09:28:48;;;;;;;;;;;;;;;21.22;37.74;101011.38;107749;1254;110731;-63
2023/03/24 09:31:17;;;;;;;;;;;;;;;21.81;36.23;101004.23;107706;1253;109588;-67
2023/03/24 09:33:46;;;;;;;;;;;;;;;22.58;36.12;100994.36;107686;1251;107619;-63
2023/03/24 09:36:14;;;;;;;;;;;;;;;23.41;36.11;100995.06;107652;1256;97822;-64
2023/03/24 09:38:42;;;;;;;;;;;;;;;24.08;34.29;100987.05;107648;1254;97835;-63
2023/03/24 09:41:19;;;;;;;;;;;;;;;24.60;33.65;100988.51;107534;1254;111282;-63
2023/03/24 09:43:53;;;;;;;;;;;;;;;24.98;33.19;100985.05;107607;1254;109803;-64
2023/03/24 09:46:28;;;;;;;;;;;;;;;25.33;33.52;100983.02;107657;1254;108547;-62
2023/03/24 09:48:56;;;;;;;;;;;;;;;25.54;32.96;100981.73;107675;1254;97842;-64
2023/03/24 09:51:29;;;;;;;;;;;;;;;25.66;32.46;100983.89;107682;1253;97885;-62
2023/03/24 09:54:03;;;;;;;;;;;;;;;25.87;30.98;100981.81;107681;1254;111406;-62
2023/03/24 09:56:32;;;;;;;;;;;;;;;26.26;29.86;100978.08;107712;1254;110526;-63
2023/03/24 09:59:06;;;;;;;;;;;;;;;26.73;30.08;100975.80;107683;1253;107362;-63
2023/03/24 10:01:35;;;;;;;;;;;;;;;26.93;29.28;100973.28;107624;1255;97854;-63
2023/03/24 10:04:04;;;;;;;;;;;;;;;26.82;27.71;100969.07;107430;1254;394319;-64
2023/03/24 10:06:40;;;;;;;;;;;;;;;26.79;27.27;100961.70;107697;1254;110842;-62
2023/03/24 10:09:09;;;;;;;;;;;;;;;27.32;28.74;100956.80;107758;1254;109209;-64
2023/03/24 10:11:45;;;;;;;;;;;;;;;27.80;27.25;100951.80;107664;1255;107632;-62
2023/03/24 10:14:23;;;;;;;;;;;;;;;27.82;27.19;100948.68;107580;1254;97855;-64
2023/03/24 10:17:02;;;;;;;;;;;;;;;28.02;27.25;100948.11;107695;1253;97935;-62
2023/03/24 10:19:42;;;;;;;;;;;;;;;28.14;26.37;100945.60;107618;1254;111378;-62
2023/03/24 10:22:20;;;;;;;;;;;;;;;27.90;26.09;100940.10;107690;1251;111316;-63
2023/03/24 10:24:54;;;;;;;;;;;;;;;27.51;26.77;100938.60;107547;1251;108107;-65
2023/03/24 10:27:23;;;;;;;;;;;;;;;27.61;27.34;100933.80;107592;1256;98347;-63
2023/03/24 10:29:53;;;;;;;;;;;;;;;28.06;26.68;100927.71;107664;1254;97813;-63
2023/03/24 10:32:24;;;;;;;;;;;;;;;28.63;26.76;100931.46;107707;1253;112271;-63
2023/03/24 10:35:06;;;;;;;;;;;;;;;29.32;25.93;100928.02;107507;1254;110388;-65
2023/03/24 10:37:35;;;;;;;;;;;;;;;30.00;24.51;100921.27;107647;1254;107694;-62
2023/03/24 10:40:11;;;;;;;;;;;;;;;30.22;23.61;100916.23;107669;1254;97819;-62
2023/03/24 10:42:39;;;;;;;;;;;;;;;30.28;24.21;100915.45;107668;1254;97787;-63
2023/03/24 10:45:12;;;;;;;;;;;;;;;30.20;25.02;100914.40;107693;1254;112304;-64
2023/03/24 10:47:41;;;;;;;;;;;;;;;29.91;24.41;100912.84;107711;1254;109389;-62
2023/03/24 10:50:11;;;;;;;;;;;;;;;29.62;24.00;100910.55;107668;1254;108588;-63
2023/03/24 10:52:45;;;;;;;;;;;;;;;29.09;23.94;100906.69;107694;1254;97855;-62
2023/03/24 10:55:22;;;;;;;;;;;;;;;28.89;24.51;100904.48;107695;1253;97829;-63
2023/03/24 10:57:58;;;;;;;;;;;;;;;28.70;24.41;100906.21;107608;1254;111695;-63
2023/03/24 11:00:33;;;;;;;;;;;;;;;28.84;24.55;100899.66;107755;1256;108947;-64
2023/03/24 11:03:07;;;;;;;;;;;;;;;29.22;24.53;100892.40;107646;1253;108733;-63
2023/03/24 11:05:36;;;;;;;;;;;;;;;29.86;24.23;100892.60;107710;1254;97808;-64
2023/03/24 11:08:24;;;;;;;;;;;;;;;30.39;23.18;100883.40;107694;1254;97810;-62
2023/03/24 11:10:54;;;;;;;;;;;;;;;31.05;23.55;100882.57;107688;1253;111384;-63
2023/03/24 11:13:31;;;;;;;;;;;;;;;31.71;22.19;100870.77;107625;1254;109805;-64
2023/03/24 11:16:13;;;;;;;;;;;;;;;31.78;21.77;100868.80;107644;1252;109282;-63
2023/03/24 11:18:56;;;;;;;;;;;;;;;32.04;21.67;100865.36;107696;1253;97822;-64
2023/03/24 11:21:26;;;;;;;;;;;;;;;32.28;20.21;100859.63;107726;1253;97831;-63
2023/03/24 11:24:00;;;;;;;;;;;;;;;32.41;20.68;100855.71;107612;1253;111663;-63
2023/03/24 11:26:39;;;;;;;;;;;;;;;32.24;20.03;100849.32;107683;1256;109991;-63
2023/03/24 11:29:17;;;;;;;;;;;;;;;32.04;19.94;100843.65;107599;1256;107297;-63
2023/03/24 11:31:50;;;;;;;;;;;;;;;32.29;20.60;100842.52;107594;1256;97944;-64
2023/03/24 11:34:24;;;;;;;;;;;;;;;32.52;20.00;100842.65;107629;1254;98427;-63
2023/03/24 11:36:54;;;;;;;;;;;;;;;32.50;19.66;100836.59;107673;1254;111299;-64
2023/03/24 11:39:24;;;;;;;;;;;;;;;32.59;20.47;100837.90;107673;1254;109207;-63
2023/03/24 11:42:01;;;;;;;;;;;;;;;32.75;19.60;100835.29;107607;1253;106461;-63
2023/03/24 11:44:38;;;;;;;;;;;;;;;32.78;19.32;100832.22;107655;1255;97855;-62
2023/03/24 11:47:10;;;;;;;;;;;;;;;32.83;18.67;100823.96;107717;1251;97832;-62
2023/03/24 11:49:49;;;;;;;;;;;;;;;32.75;18.28;100824.42;107695;1254;111791;-61
2023/03/24 11:52:27;;;;;;;;;;;;;;;32.50;17.26;100814.70;107679;1256;110455;-62
2023/03/24 11:54:56;;;;;;;;;;;;;;;32.27;16.81;100810.02;107728;1252;107758;-64
2023/03/24 11:57:39;;;;;;;;;;;;;;;32.08;17.22;100799.58;107682;1252;97822;-63
2023/03/24 12:00:20;;;;;;;;;;;;;;;31.82;17.49;100795.09;107574;1253;97823;-65
2023/03/24 12:02:55;;;;;;;;;;;;;;;31.85;17.12;100790.20;107690;1253;111883;-63
2023/03/24 12:05:41;;;;;;;;;;;;;;;31.91;16.59;100788.25;107705;1252;110253;-62
2023/03/24 12:08:12;;;;;;;;;;;;;;;31.86;15.89;100791.83;107525;1252;108485;-62
2023/03/24 12:10:40;;;;;;;;;;;;;;;31.61;16.34;100785.34;107681;1254;97894;-64
2023/03/24 12:13:11;;;;;;;;;;;;;;;31.48;16.18;100781.44;107679;1253;97707;-64
2023/03/24 12:16:07;;;;;;;;;;;;;;;31.29;16.50;100782.80;107719;1251;111828;-62
2023/03/24 12:18:38;;;;;;;;;;;;;;;31.46;16.15;100772.71;107688;1254;110176;-63
2023/03/24 12:21:25;;;;;;;;;;;;;;;31.72;16.29;100770.67;107705;1253;107443;-63
2023/03/24 12:23:58;;;;;;;;;;;;;;;32.06;15.95;100767.98;107671;1254;97844;-63
2023/03/24 12:26:26;;;;;;;;;;;;;;;32.42;16.17;100767.07;107749;1252;97858;-64
2023/03/24 12:29:07;;;;;;;;;;;;;;;32.89;14.96;100766.27;107709;1253;111684;-64
2023/03/24 12:31:35;;;;;;;;;;;;;;;33.14;14.35;100763.18;107715;1253;110313;-62
2023/03/24 12:34:15;;;;;;;;;;;;;;;33.30;14.38;100761.13;107739;1254;107858;-63
2023/03/24 12:37:03;;;;;;;;;;;;;;;33.63;14.07;100761.15;107701;1252;97602;-62
2023/03/24 12:39:34;;;;;;;;;;;;;;;33.99;14.12;100756.77;107648;1254;97854;-63
2023/03/24 12:42:02;;;;;;;;;;;;;;;34.47;13.93;100753.90;107750;1252;112349;-63
2023/03/24 12:44:30;;;;;;;;;;;;;;;34.74;13.29;100747.41;107631;1254;109613;-63
2023/03/24 12:47:14;;;;;;;;;;;;;;;34.93;13.39;100749.12;107679;1254;107530;-62
2023/03/24 12:49:43;;;;;;;;;;;;;;;35.00;12.74;100751.27;107688;1251;97840;-63
2023/03/24 12:52:27;;;;;;;;;;;;;;;34.82;13.43;100737.54;107634;1254;97848;-64
2023/03/24 12:55:01;;;;;;;;;;;;;;;34.96;13.46;100735.50;107692;1251;111835;-63
2023/03/24 12:57:34;;;;;;;;;;;;;;;35.23;12.85;100729.23;107719;1254;109978;-63
2023/03/24 13:00:10;;;;;;;;;;;;;;;35.47;12.51;100735.30;107689;1254;108631;-63
2023/03/24 13:02:44;;;;;;;;;;;;;;;35.65;12.76;100732.96;107690;1252;97819;-65